RYR512 LIPE-LSGG
Flight info
| Callsign | RYR512 |
|---|---|
| Flight time | 0h 58m |
| Altitude | 32000 |
| Route | LUPOS DCT OSBUL DCT MISPO DCT TZO DCT SRN/N0448F310 DCT MMP/N0449F320 DCT OMETO/N0391F220 DCT AOSTA L615 BANKO |
| Aircraft | B38M/M-SDE1FGHILORVWXY/HB1 |
Departure
| Time | 2026-05-07 13:52 |
|---|---|
| Airport | Bologna Guglielmo Marconi Airport (LIPE) |
Arrival
| Time | 2026-05-07 14:50 |
|---|---|
| Airport | Geneva International Airport (LSGG) |
| Time | Latitude | Longitude | Altitude | Speed | Heading |
|---|---|---|---|---|---|
| 2026-05-07 13:16 | 44.53008 | 11.29517 | 137 ft | 0 kts | 206° |
| 2026-05-07 13:41 | 44.53014 | 11.29521 | 137 ft | 3 kts | 206° |
| 2026-05-07 13:41 | 44.53031 | 11.29535 | 137 ft | 3 kts | 219° |
| 2026-05-07 13:42 | 44.53045 | 11.29555 | 137 ft | 3 kts | 237° |
| 2026-05-07 13:42 | 44.53054 | 11.29580 | 136 ft | 3 kts | 255° |
| 2026-05-07 13:42 | 44.53056 | 11.29595 | 136 ft | 1 kts | 258° |
| 2026-05-07 13:42 | 44.53057 | 11.29598 | 136 ft | 0 kts | 258° |
| 2026-05-07 13:47 | 44.53059 | 11.29592 | 136 ft | 2 kts | 292° |
| 2026-05-07 13:47 | 44.53096 | 11.29552 | 137 ft | 13 kts | 320° |
| 2026-05-07 13:47 | 44.53160 | 11.29387 | 138 ft | 27 kts | 296° |
| 2026-05-07 13:48 | 44.53262 | 11.29105 | 137 ft | 36 kts | 297° |
| 2026-05-07 13:48 | 44.53381 | 11.28773 | 127 ft | 40 kts | 297° |
| 2026-05-07 13:48 | 44.53512 | 11.28418 | 127 ft | 42 kts | 296° |
| 2026-05-07 13:48 | 44.53588 | 11.28199 | 133 ft | 41 kts | 296° |
| 2026-05-07 13:49 | 44.53681 | 11.27938 | 131 ft | 43 kts | 296° |
| 2026-05-07 13:49 | 44.53801 | 11.27602 | 127 ft | 24 kts | 297° |
| 2026-05-07 13:49 | 44.53881 | 11.27387 | 129 ft | 26 kts | 300° |
| 2026-05-07 13:49 | 44.54022 | 11.27229 | 130 ft | 27 kts | 332° |
| 2026-05-07 13:50 | 44.54111 | 11.27284 | 129 ft | 4 kts | 90° |
| 2026-05-07 13:50 | 44.54106 | 11.27308 | 130 ft | 0 kts | 114° |
| 2026-05-07 13:50 | 44.54101 | 11.27323 | 128 ft | 3 kts | 115° |
| 2026-05-07 13:50 | 44.54089 | 11.27360 | 128 ft | 5 kts | 115° |
| 2026-05-07 13:51 | 44.54087 | 11.27365 | 129 ft | 0 kts | 116° |
| 2026-05-07 13:51 | 44.53989 | 11.27637 | 126 ft | 74 kts | 116° |
| 2026-05-07 13:51 | 44.53639 | 11.28616 | 136 ft | 147 kts | 115° |
| 2026-05-07 13:51 | 44.53120 | 11.30068 | 548 ft | 175 kts | 118° |
| 2026-05-07 13:52 | 44.52537 | 11.31578 | 1526 ft | 174 kts | 110° |
| 2026-05-07 13:52 | 44.52378 | 11.33292 | 2313 ft | 191 kts | 78° |
| 2026-05-07 13:52 | 44.53123 | 11.34913 | 2953 ft | 212 kts | 36° |
| 2026-05-07 13:52 | 44.54590 | 11.35564 | 3607 ft | 237 kts | 356° |
| 2026-05-07 13:53 | 44.56101 | 11.34917 | 4977 ft | 220 kts | 334° |
| 2026-05-07 13:53 | 44.57520 | 11.34110 | 6116 ft | 223 kts | 345° |
| 2026-05-07 13:53 | 44.59061 | 11.34321 | 7109 ft | 224 kts | 27° |
| 2026-05-07 13:53 | 44.60233 | 11.35750 | 8101 ft | 229 kts | 50° |
| 2026-05-07 13:54 | 44.61328 | 11.37448 | 8908 ft | 239 kts | 43° |
| 2026-05-07 13:54 | 44.62535 | 11.39012 | 9888 ft | 240 kts | 39° |
| 2026-05-07 13:54 | 44.63839 | 11.40543 | 10646 ft | 249 kts | 36° |
| 2026-05-07 13:54 | 44.64595 | 11.41367 | 11131 ft | 249 kts | 34° |
| 2026-05-07 13:55 | 44.66046 | 11.42505 | 11736 ft | 259 kts | 11° |
| 2026-05-07 13:55 | 44.67580 | 11.42586 | 12272 ft | 261 kts | 342° |
| 2026-05-07 13:55 | 44.69133 | 11.41351 | 13028 ft | 261 kts | 309° |
| 2026-05-07 13:56 | 44.70061 | 11.39164 | 13806 ft | 265 kts | 285° |
| 2026-05-07 13:56 | 44.70232 | 11.36603 | 14666 ft | 266 kts | 263° |
| 2026-05-07 13:56 | 44.69823 | 11.33992 | 15225 ft | 284 kts | 252° |
| 2026-05-07 13:56 | 44.69305 | 11.31227 | 15614 ft | 303 kts | 268° |
| 2026-05-07 13:57 | 44.69662 | 11.28257 | 16174 ft | 317 kts | 285° |
| 2026-05-07 13:57 | 44.70162 | 11.25174 | 16746 ft | 328 kts | 281° |
| 2026-05-07 13:57 | 44.70605 | 11.22014 | 17619 ft | 330 kts | 280° |
| 2026-05-07 13:57 | 44.71037 | 11.18820 | 18411 ft | 334 kts | 279° |
| 2026-05-07 13:58 | 44.71462 | 11.15596 | 19141 ft | 337 kts | 279° |
| 2026-05-07 13:58 | 44.71881 | 11.12359 | 19904 ft | 338 kts | 279° |
| 2026-05-07 13:58 | 44.72301 | 11.09097 | 20634 ft | 340 kts | 278° |
| 2026-05-07 13:58 | 44.72719 | 11.05834 | 21359 ft | 341 kts | 278° |
| 2026-05-07 13:59 | 44.73139 | 11.02536 | 22082 ft | 343 kts | 278° |
| 2026-05-07 13:59 | 44.73561 | 10.99224 | 22791 ft | 345 kts | 278° |
| 2026-05-07 13:59 | 44.73984 | 10.95888 | 23479 ft | 348 kts | 277° |
| 2026-05-07 13:59 | 44.74410 | 10.92531 | 24053 ft | 350 kts | 277° |
| 2026-05-07 14:00 | 44.74836 | 10.89155 | 24611 ft | 352 kts | 277° |
| 2026-05-07 14:00 | 44.75266 | 10.85749 | 25156 ft | 354 kts | 277° |
| 2026-05-07 14:00 | 44.75690 | 10.82372 | 25708 ft | 355 kts | 277° |
| 2026-05-07 14:00 | 44.76121 | 10.78938 | 26232 ft | 357 kts | 277° |
| 2026-05-07 14:01 | 44.76553 | 10.75484 | 26756 ft | 360 kts | 277° |
| 2026-05-07 14:01 | 44.76987 | 10.72005 | 27259 ft | 362 kts | 277° |
| 2026-05-07 14:01 | 44.77423 | 10.68506 | 27772 ft | 364 kts | 277° |
| 2026-05-07 14:01 | 44.77859 | 10.64989 | 28269 ft | 366 kts | 277° |
| 2026-05-07 14:02 | 44.78299 | 10.61436 | 28751 ft | 368 kts | 277° |
| 2026-05-07 14:02 | 44.78738 | 10.57885 | 29373 ft | 367 kts | 277° |
| 2026-05-07 14:02 | 44.79172 | 10.54360 | 30037 ft | 364 kts | 277° |
| 2026-05-07 14:02 | 44.79602 | 10.50864 | 30588 ft | 362 kts | 277° |
| 2026-05-07 14:03 | 44.80029 | 10.47382 | 31085 ft | 360 kts | 277° |
| 2026-05-07 14:03 | 44.80454 | 10.43906 | 31583 ft | 359 kts | 276° |
| 2026-05-07 14:03 | 44.80877 | 10.40432 | 31913 ft | 361 kts | 276° |
| 2026-05-07 14:04 | 44.81730 | 10.33521 | 31954 ft | 357 kts | 279° |
| 2026-05-07 14:04 | 44.82641 | 10.30247 | 31974 ft | 365 kts | 296° |
| 2026-05-07 14:04 | 44.84293 | 10.27458 | 31969 ft | 379 kts | 311° |
| 2026-05-07 14:05 | 44.88489 | 10.22828 | 31960 ft | 384 kts | 315° |
| 2026-05-07 14:05 | 44.92745 | 10.18269 | 31964 ft | 384 kts | 315° |
| 2026-05-07 14:06 | 44.97020 | 10.13741 | 31966 ft | 383 kts | 315° |
| 2026-05-07 14:06 | 45.01256 | 10.09257 | 31958 ft | 383 kts | 315° |
| 2026-05-07 14:07 | 45.05524 | 10.04736 | 31956 ft | 383 kts | 315° |
| 2026-05-07 14:07 | 45.09788 | 10.00212 | 31957 ft | 383 kts | 315° |
| 2026-05-07 14:08 | 45.14060 | 9.95670 | 31955 ft | 384 kts | 315° |
| 2026-05-07 14:08 | 45.18330 | 9.91122 | 31963 ft | 383 kts | 316° |
| 2026-05-07 14:09 | 45.22593 | 9.86573 | 31965 ft | 383 kts | 316° |
| 2026-05-07 14:09 | 45.26853 | 9.82018 | 31962 ft | 383 kts | 316° |
| 2026-05-07 14:10 | 45.31076 | 9.77493 | 31982 ft | 383 kts | 316° |
| 2026-05-07 14:10 | 45.35327 | 9.72931 | 32004 ft | 383 kts | 316° |
| 2026-05-07 14:11 | 45.39574 | 9.68364 | 32027 ft | 382 kts | 316° |
| 2026-05-07 14:11 | 45.43817 | 9.63792 | 32051 ft | 382 kts | 316° |
| 2026-05-07 14:12 | 45.48060 | 9.59212 | 32046 ft | 382 kts | 316° |
| 2026-05-07 14:12 | 45.52296 | 9.54631 | 32048 ft | 382 kts | 316° |
| 2026-05-07 14:13 | 45.55751 | 9.49210 | 32042 ft | 363 kts | 289° |
| 2026-05-07 14:13 | 45.57299 | 9.42387 | 32039 ft | 362 kts | 283° |
| 2026-05-07 14:14 | 45.58641 | 9.35452 | 31963 ft | 363 kts | 282° |
| 2026-05-07 14:14 | 45.59921 | 9.28458 | 31974 ft | 365 kts | 282° |
| 2026-05-07 14:15 | 45.61180 | 9.21435 | 31968 ft | 365 kts | 282° |
| 2026-05-07 14:15 | 45.61757 | 9.18191 | 31967 ft | 365 kts | 282° |
| 2026-05-07 14:16 | 45.63014 | 9.11118 | 31966 ft | 365 kts | 282° |
| 2026-05-07 14:16 | 45.63634 | 9.07611 | 31970 ft | 365 kts | 282° |
| 2026-05-07 14:17 | 45.64539 | 9.00527 | 31953 ft | 361 kts | 267° |
| 2026-05-07 14:17 | 45.64420 | 8.93305 | 31970 ft | 364 kts | 269° |
| 2026-05-07 14:18 | 45.64332 | 8.87305 | 31963 ft | 364 kts | 268° |
| 2026-05-07 14:18 | 45.64203 | 8.80076 | 31968 ft | 364 kts | 268° |
| 2026-05-07 14:19 | 45.64185 | 8.72855 | 31957 ft | 364 kts | 278° |
| 2026-05-07 14:19 | 45.65187 | 8.65752 | 31955 ft | 364 kts | 279° |
| 2026-05-07 14:20 | 45.66175 | 8.58639 | 31966 ft | 366 kts | 279° |
| 2026-05-07 14:20 | 45.67173 | 8.51502 | 31967 ft | 366 kts | 279° |
| 2026-05-07 14:21 | 45.68167 | 8.44369 | 31968 ft | 366 kts | 279° |
| 2026-05-07 14:21 | 45.69158 | 8.37225 | 31971 ft | 366 kts | 279° |
| 2026-05-07 14:22 | 45.70303 | 8.28928 | 31984 ft | 366 kts | 279° |
| 2026-05-07 14:22 | 45.71120 | 8.22977 | 31985 ft | 367 kts | 279° |
| 2026-05-07 14:23 | 45.72104 | 8.15784 | 32012 ft | 368 kts | 279° |
| 2026-05-07 14:23 | 45.73084 | 8.08585 | 31991 ft | 368 kts | 279° |
| 2026-05-07 14:24 | 45.73875 | 8.01368 | 31998 ft | 367 kts | 275° |
| 2026-05-07 14:24 | 45.74502 | 7.94115 | 31985 ft | 367 kts | 276° |
| 2026-05-07 14:25 | 45.75141 | 7.86872 | 31990 ft | 367 kts | 276° |
| 2026-05-07 14:25 | 45.75780 | 7.79614 | 31975 ft | 369 kts | 276° |
| 2026-05-07 14:26 | 45.76418 | 7.72317 | 31987 ft | 369 kts | 276° |
| 2026-05-07 14:26 | 45.77051 | 7.65022 | 32032 ft | 369 kts | 276° |
| 2026-05-07 14:27 | 45.77679 | 7.57734 | 31978 ft | 367 kts | 275° |
| 2026-05-07 14:27 | 45.78301 | 7.50449 | 31981 ft | 369 kts | 275° |
| 2026-05-07 14:28 | 45.78919 | 7.43168 | 31917 ft | 368 kts | 275° |
| 2026-05-07 14:28 | 45.79520 | 7.36045 | 31914 ft | 346 kts | 275° |
| 2026-05-07 14:28 | 45.79793 | 7.32725 | 31751 ft | 337 kts | 275° |
| 2026-05-07 14:29 | 45.80066 | 7.29392 | 31309 ft | 336 kts | 275° |
| 2026-05-07 14:29 | 45.80338 | 7.26064 | 30860 ft | 335 kts | 275° |
| 2026-05-07 14:29 | 45.80608 | 7.22755 | 30398 ft | 332 kts | 275° |
| 2026-05-07 14:29 | 45.80873 | 7.19490 | 30069 ft | 327 kts | 275° |
| 2026-05-07 14:30 | 45.81133 | 7.16269 | 29620 ft | 324 kts | 275° |
| 2026-05-07 14:30 | 45.81394 | 7.13043 | 29160 ft | 328 kts | 275° |
| 2026-05-07 14:30 | 45.81657 | 7.09765 | 28744 ft | 333 kts | 275° |
| 2026-05-07 14:30 | 45.82009 | 7.06478 | 28320 ft | 335 kts | 285° |
| 2026-05-07 14:31 | 45.83047 | 7.03486 | 27878 ft | 338 kts | 302° |
| 2026-05-07 14:31 | 45.84364 | 7.00720 | 27556 ft | 333 kts | 300° |
| 2026-05-07 14:31 | 45.85640 | 6.97958 | 27188 ft | 331 kts | 300° |
| 2026-05-07 14:31 | 45.86916 | 6.95228 | 26837 ft | 328 kts | 301° |
| 2026-05-07 14:32 | 45.88191 | 6.92526 | 26471 ft | 326 kts | 301° |
| 2026-05-07 14:32 | 45.89462 | 6.89843 | 26131 ft | 323 kts | 301° |
| 2026-05-07 14:32 | 45.90710 | 6.87214 | 25783 ft | 322 kts | 301° |
| 2026-05-07 14:32 | 45.91972 | 6.84557 | 25411 ft | 321 kts | 301° |
| 2026-05-07 14:33 | 45.93222 | 6.81921 | 25071 ft | 318 kts | 301° |
| 2026-05-07 14:33 | 45.94465 | 6.79301 | 24734 ft | 317 kts | 302° |
| 2026-05-07 14:33 | 45.95701 | 6.76677 | 24390 ft | 316 kts | 301° |
| 2026-05-07 14:33 | 45.96921 | 6.74049 | 24005 ft | 316 kts | 301° |
| 2026-05-07 14:34 | 45.98138 | 6.71428 | 23700 ft | 314 kts | 301° |
| 2026-05-07 14:34 | 45.99346 | 6.68824 | 23324 ft | 313 kts | 301° |
| 2026-05-07 14:34 | 46.00564 | 6.66197 | 22947 ft | 318 kts | 301° |
| 2026-05-07 14:34 | 46.01799 | 6.63533 | 22597 ft | 321 kts | 301° |
| 2026-05-07 14:35 | 46.03037 | 6.60858 | 22261 ft | 321 kts | 301° |
| 2026-05-07 14:35 | 46.04253 | 6.58230 | 21902 ft | 318 kts | 301° |
| 2026-05-07 14:35 | 46.05487 | 6.55587 | 21575 ft | 318 kts | 302° |
| 2026-05-07 14:35 | 46.06731 | 6.52952 | 21179 ft | 317 kts | 302° |
| 2026-05-07 14:36 | 46.07965 | 6.50332 | 20845 ft | 314 kts | 301° |
| 2026-05-07 14:36 | 46.09187 | 6.47749 | 20476 ft | 308 kts | 301° |
| 2026-05-07 14:36 | 46.10374 | 6.45238 | 20153 ft | 298 kts | 301° |
| 2026-05-07 14:36 | 46.11539 | 6.42769 | 19499 ft | 300 kts | 301° |
| 2026-05-07 14:37 | 46.12734 | 6.40236 | 18609 ft | 311 kts | 302° |
| 2026-05-07 14:37 | 46.15225 | 6.34948 | 17210 ft | 307 kts | 301° |
| 2026-05-07 14:37 | 46.16453 | 6.32545 | 17179 ft | 299 kts | 311° |
| 2026-05-07 14:38 | 46.18170 | 6.30770 | 16387 ft | 310 kts | 333° |
| 2026-05-07 14:38 | 46.20312 | 6.30061 | 15420 ft | 326 kts | 357° |
| 2026-05-07 14:38 | 46.22577 | 6.30622 | 14463 ft | 338 kts | 20° |
| 2026-05-07 14:38 | 46.24559 | 6.32456 | 13733 ft | 341 kts | 43° |
| 2026-05-07 14:39 | 46.26203 | 6.34901 | 12987 ft | 339 kts | 45° |
| 2026-05-07 14:39 | 46.27844 | 6.37315 | 12321 ft | 334 kts | 45° |
| 2026-05-07 14:39 | 46.29463 | 6.39699 | 11644 ft | 330 kts | 45° |
| 2026-05-07 14:39 | 46.31059 | 6.42060 | 10984 ft | 326 kts | 46° |
| 2026-05-07 14:40 | 46.32637 | 6.44397 | 10412 ft | 321 kts | 46° |
| 2026-05-07 14:40 | 46.34174 | 6.46675 | 9982 ft | 311 kts | 46° |
| 2026-05-07 14:40 | 46.35662 | 6.48880 | 9556 ft | 301 kts | 46° |
| 2026-05-07 14:40 | 46.37106 | 6.51024 | 9076 ft | 294 kts | 46° |
| 2026-05-07 14:41 | 46.38535 | 6.53146 | 8496 ft | 292 kts | 46° |
| 2026-05-07 14:41 | 46.39923 | 6.55212 | 7998 ft | 287 kts | 46° |
| 2026-05-07 14:41 | 46.41311 | 6.57291 | 7426 ft | 286 kts | 46° |
| 2026-05-07 14:41 | 46.42685 | 6.59352 | 6912 ft | 282 kts | 46° |
| 2026-05-07 14:42 | 46.44072 | 6.61320 | 6412 ft | 277 kts | 35° |
| 2026-05-07 14:42 | 46.45836 | 6.62265 | 5960 ft | 269 kts | 1° |
| 2026-05-07 14:42 | 46.47623 | 6.61662 | 5420 ft | 266 kts | 328° |
| 2026-05-07 14:42 | 46.48835 | 6.59732 | 4947 ft | 261 kts | 294° |
| 2026-05-07 14:43 | 46.49097 | 6.57150 | 4396 ft | 262 kts | 263° |
| 2026-05-07 14:43 | 46.48397 | 6.54754 | 4089 ft | 258 kts | 236° |
| 2026-05-07 14:43 | 46.47332 | 6.52607 | 4071 ft | 265 kts | 236° |
| 2026-05-07 14:43 | 46.46248 | 6.50431 | 4033 ft | 266 kts | 236° |
| 2026-05-07 14:44 | 46.45166 | 6.48247 | 4037 ft | 267 kts | 235° |
| 2026-05-07 14:44 | 46.44083 | 6.46052 | 4031 ft | 268 kts | 235° |
| 2026-05-07 14:44 | 46.43000 | 6.43859 | 4034 ft | 267 kts | 236° |
| 2026-05-07 14:44 | 46.41923 | 6.41659 | 4026 ft | 269 kts | 236° |
| 2026-05-07 14:45 | 46.40859 | 6.39486 | 4049 ft | 263 kts | 236° |
| 2026-05-07 14:45 | 46.39876 | 6.37269 | 4365 ft | 250 kts | 242° |
| 2026-05-07 14:45 | 46.39028 | 6.35190 | 4467 ft | 235 kts | 240° |
| 2026-05-07 14:45 | 46.38193 | 6.33247 | 4379 ft | 225 kts | 238° |
| 2026-05-07 14:46 | 46.37371 | 6.31356 | 4299 ft | 214 kts | 239° |
| 2026-05-07 14:46 | 46.36509 | 6.29669 | 4088 ft | 212 kts | 230° |
| 2026-05-07 14:46 | 46.35493 | 6.28094 | 4001 ft | 215 kts | 227° |
| 2026-05-07 14:46 | 46.34436 | 6.26547 | 3965 ft | 217 kts | 227° |
| 2026-05-07 14:47 | 46.33383 | 6.24997 | 3661 ft | 214 kts | 227° |
| 2026-05-07 14:47 | 46.32345 | 6.23465 | 3409 ft | 206 kts | 226° |
| 2026-05-07 14:47 | 46.31396 | 6.22069 | 3184 ft | 190 kts | 227° |
| 2026-05-07 14:47 | 46.30447 | 6.20664 | 2931 ft | 192 kts | 226° |
| 2026-05-07 14:48 | 46.29557 | 6.19355 | 2689 ft | 172 kts | 226° |
| 2026-05-07 14:48 | 46.28760 | 6.18179 | 2445 ft | 157 kts | 226° |
| 2026-05-07 14:48 | 46.28019 | 6.17087 | 2225 ft | 150 kts | 225° |
| 2026-05-07 14:48 | 46.27288 | 6.16007 | 2033 ft | 151 kts | 224° |
| 2026-05-07 14:49 | 46.26543 | 6.14901 | 1933 ft | 166 kts | 224° |
| 2026-05-07 14:49 | 46.25778 | 6.13790 | 1728 ft | 149 kts | 224° |
| 2026-05-07 14:49 | 46.25070 | 6.12758 | 1436 ft | 142 kts | 224° |
| 2026-05-07 14:49 | 46.24469 | 6.11881 | 1405 ft | 95 kts | 226° |
| 2026-05-07 14:50 | 46.24081 | 6.11304 | 1405 ft | 68 kts | 225° |
| 2026-05-07 14:50 | 46.23872 | 6.11086 | 1401 ft | 36 kts | 186° |
| 2026-05-07 14:50 | 46.23745 | 6.11090 | 1399 ft | 0 kts | 184° |
| 2026-05-07 14:50 | 46.23727 | 6.11086 | 1399 ft | 5 kts | 192° |
| 2026-05-07 14:51 | 46.23686 | 6.11058 | 1403 ft | 7 kts | 222° |
| 2026-05-07 14:51 | 46.23673 | 6.11037 | 1397 ft | 0 kts | 228° |
| 2026-05-07 14:51 | 46.23665 | 6.11025 | 1398 ft | 0 kts | 226° |
| 2026-05-07 14:51 | 46.23662 | 6.11019 | 1402 ft | 0 kts | 226° |
| 2026-05-07 14:53 | 46.23640 | 6.10987 | 1396 ft | 10 kts | 226° |
| 2026-05-07 14:53 | 46.23581 | 6.10897 | 1400 ft | 16 kts | 226° |
| 2026-05-07 14:54 | 46.23480 | 6.10751 | 1395 ft | 24 kts | 225° |
| 2026-05-07 14:54 | 46.23396 | 6.10634 | 1403 ft | 14 kts | 220° |
| 2026-05-07 14:54 | 46.23372 | 6.10602 | 1396 ft | 0 kts | 224° |
| 2026-05-07 14:55 | 46.23368 | 6.10597 | 1403 ft | 2 kts | 224° |
| 2026-05-07 14:55 | 46.23349 | 6.10570 | 1399 ft | 5 kts | 225° |
| 2026-05-07 14:56 | 46.23311 | 6.10514 | 1403 ft | 12 kts | 225° |
| 2026-05-07 14:56 | 46.23233 | 6.10400 | 1402 ft | 18 kts | 225° |
| 2026-05-07 14:56 | 46.23191 | 6.10338 | 1398 ft | 0 kts | 225° |
| 2026-05-07 14:56 | 46.23190 | 6.10337 | 1398 ft | 0 kts | 225° |
| 2026-05-07 14:57 | 46.23188 | 6.10334 | 1398 ft | 2 kts | 225° |
| 2026-05-07 14:57 | 46.23167 | 6.10318 | 1400 ft | 5 kts | 187° |
| 2026-05-07 14:57 | 46.23123 | 6.10315 | 1398 ft | 7 kts | 178° |
| 2026-05-07 14:58 | 46.23105 | 6.10316 | 1401 ft | 2 kts | 179° |
| 2026-05-07 14:58 | 46.23103 | 6.10316 | 1401 ft | 0 kts | 179° |